sensor_id;sensor_type;location;lat;lon;timestamp;temperature;humidity
79020;DHT22;72857;44.740;37.770;2023-11-21T00:00:37;5.35;78.00
79020;DHT22;72857;44.740;37.770;2023-11-21T00:01:38;5.32;78.32
79020;DHT22;72857;44.740;37.770;2023-11-21T00:02:41;5.32;78.41
79020;DHT22;72857;44.740;37.770;2023-11-21T00:03:42;5.32;78.41
79020;DHT22;72857;44.740;37.770;2023-11-21T00:04:44;5.30;77.33
79020;DHT22;72857;44.740;37.770;2023-11-21T00:05:46;5.32;78.01
79020;DHT22;72857;44.740;37.770;2023-11-21T00:06:49;5.29;78.35
79020;DHT22;72857;44.740;37.770;2023-11-21T00:07:50;5.28;77.91
79020;DHT22;72857;44.740;37.770;2023-11-21T00:08:52;5.26;77.58
79020;DHT22;72857;44.740;37.770;2023-11-21T00:09:53;5.23;78.13
79020;DHT22;72857;44.740;37.770;2023-11-21T00:10:57;5.23;78.55
79020;DHT22;72857;44.740;37.770;2023-11-21T00:12:02;5.25;78.25
79020;DHT22;72857;44.740;37.770;2023-11-21T00:13:04;5.22;78.21
79020;DHT22;72857;44.740;37.770;2023-11-21T00:14:05;5.22;78.86
79020;DHT22;72857;44.740;37.770;2023-11-21T00:15:08;5.19;78.45
79020;DHT22;72857;44.740;37.770;2023-11-21T00:16:12;5.19;78.65
79020;DHT22;72857;44.740;37.770;2023-11-21T00:17:13;5.18;78.76
79020;DHT22;72857;44.740;37.770;2023-11-21T00:18:14;5.18;78.51
79020;DHT22;72857;44.740;37.770;2023-11-21T00:19:16;5.21;78.91
79020;DHT22;72857;44.740;37.770;2023-11-21T00:20:18;5.22;79.14
79020;DHT22;72857;44.740;37.770;2023-11-21T00:21:19;5.19;78.86
79020;DHT22;72857;44.740;37.770;2023-11-21T00:22:21;5.21;79.16
79020;DHT22;72857;44.740;37.770;2023-11-21T00:23:22;5.19;79.69
79020;DHT22;72857;44.740;37.770;2023-11-21T00:24:24;5.22;79.38
79020;DHT22;72857;44.740;37.770;2023-11-21T00:25:25;5.21;79.10
79020;DHT22;72857;44.740;37.770;2023-11-21T00:26:27;5.25;78.65
79020;DHT22;72857;44.740;37.770;2023-11-21T00:27:36;5.26;78.75
79020;DHT22;72857;44.740;37.770;2023-11-21T00:28:37;5.28;78.78
79020;DHT22;72857;44.740;37.770;2023-11-21T00:29:39;5.25;78.97
79020;DHT22;72857;44.740;37.770;2023-11-21T00:30:40;5.26;78.92
79020;DHT22;72857;44.740;37.770;2023-11-21T00:31:41;5.28;79.11
79020;DHT22;72857;44.740;37.770;2023-11-21T00:32:43;5.25;78.25
79020;DHT22;72857;44.740;37.770;2023-11-21T00:33:44;5.28;78.39
79020;DHT22;72857;44.740;37.770;2023-11-21T00:34:45;5.29;78.82
79020;DHT22;72857;44.740;37.770;2023-11-21T00:35:46;5.30;77.99
79020;DHT22;72857;44.740;37.770;2023-11-21T00:36:48;5.29;78.01
79020;DHT22;72857;44.740;37.770;2023-11-21T00:37:49;5.32;78.22
79020;DHT22;72857;44.740;37.770;2023-11-21T00:38:50;5.32;78.40
79020;DHT22;72857;44.740;37.770;2023-11-21T00:39:52;5.35;78.29
79020;DHT22;72857;44.740;37.770;2023-11-21T00:40:53;5.35;77.46
79020;DHT22;72857;44.740;37.770;2023-11-21T00:41:57;5.35;77.74
79020;DHT22;72857;44.740;37.770;2023-11-21T00:42:59;5.35;77.41
79020;DHT22;72857;44.740;37.770;2023-11-21T00:44:00;5.38;77.89
79020;DHT22;72857;44.740;37.770;2023-11-21T00:45:02;5.43;78.03
79020;DHT22;72857;44.740;37.770;2023-11-21T00:46:06;5.43;77.54
79020;DHT22;72857;44.740;37.770;2023-11-21T00:47:10;5.40;77.43
79020;DHT22;72857;44.740;37.770;2023-11-21T00:48:12;5.43;77.99
79020;DHT22;72857;44.740;37.770;2023-11-21T00:49:14;5.44;78.17
79020;DHT22;72857;44.740;37.770;2023-11-21T00:50:15;5.49;77.43
79020;DHT22;72857;44.740;37.770;2023-11-21T00:51:17;5.47;77.03
79020;DHT22;72857;44.740;37.770;2023-11-21T00:52:18;5.49;77.45
79020;DHT22;72857;44.740;37.770;2023-11-21T00:53:19;5.49;77.83
79020;DHT22;72857;44.740;37.770;2023-11-21T00:54:21;5.53;78.19
79020;DHT22;72857;44.740;37.770;2023-11-21T00:55:22;5.54;76.98
79020;DHT22;72857;44.740;37.770;2023-11-21T00:56:24;5.50;77.29
79020;DHT22;72857;44.740;37.770;2023-11-21T00:57:26;5.52;77.42
79020;DHT22;72857;44.740;37.770;2023-11-21T00:58:27;5.52;77.51
79020;DHT22;72857;44.740;37.770;2023-11-21T00:59:29;5.52;78.30
79020;DHT22;72857;44.740;37.770;2023-11-21T01:00:31;5.53;77.76
79020;DHT22;72857;44.740;37.770;2023-11-21T01:01:32;5.54;77.67
79020;DHT22;72857;44.740;37.770;2023-11-21T01:02:34;5.53;78.37
79020;DHT22;72857;44.740;37.770;2023-11-21T01:03:36;5.57;78.50
79020;DHT22;72857;44.740;37.770;2023-11-21T01:04:38;5.63;78.69
79020;DHT22;72857;44.740;37.770;2023-11-21T01:05:39;5.63;77.80
79020;DHT22;72857;44.740;37.770;2023-11-21T01:06:40;5.63;78.16
79020;DHT22;72857;44.740;37.770;2023-11-21T01:07:43;5.60;77.63
79020;DHT22;72857;44.740;37.770;2023-11-21T01:08:45;5.57;78.00
79020;DHT22;72857;44.740;37.770;2023-11-21T01:09:47;5.60;77.43
79020;DHT22;72857;44.740;37.770;2023-11-21T01:10:49;5.57;77.69
79020;DHT22;72857;44.740;37.770;2023-11-21T01:11:50;5.60;77.76
79020;DHT22;72857;44.740;37.770;2023-11-21T01:12:53;5.57;77.77
79020;DHT22;72857;44.740;37.770;2023-11-21T01:13:54;5.59;78.35
79020;DHT22;72857;44.740;37.770;2023-11-21T01:14:56;5.60;78.11
79020;DHT22;72857;44.740;37.770;2023-11-21T01:16:01;5.63;78.50
79020;DHT22;72857;44.740;37.770;2023-11-21T01:17:02;5.61;77.89
79020;DHT22;72857;44.740;37.770;2023-11-21T01:18:06;5.59;78.08
79020;DHT22;72857;44.740;37.770;2023-11-21T01:19:07;5.60;78.42
79020;DHT22;72857;44.740;37.770;2023-11-21T01:20:10;5.60;78.04
79020;DHT22;72857;44.740;37.770;2023-11-21T01:21:14;5.57;78.18
79020;DHT22;72857;44.740;37.770;2023-11-21T01:22:16;5.57;77.43
79020;DHT22;72857;44.740;37.770;2023-11-21T01:23:17;5.56;77.65
79020;DHT22;72857;44.740;37.770;2023-11-21T01:24:18;5.57;78.13
79020;DHT22;72857;44.740;37.770;2023-11-21T01:25:20;5.59;78.17
79020;DHT22;72857;44.740;37.770;2023-11-21T01:26:23;5.60;78.53
79020;DHT22;72857;44.740;37.770;2023-11-21T01:27:25;5.63;77.75
79020;DHT22;72857;44.740;37.770;2023-11-21T01:28:26;5.60;77.67
79020;DHT22;72857;44.740;37.770;2023-11-21T01:29:27;5.57;77.25
79020;DHT22;72857;44.740;37.770;2023-11-21T01:30:31;5.56;78.07
79020;DHT22;72857;44.740;37.770;2023-11-21T01:31:33;5.59;77.70
79020;DHT22;72857;44.740;37.770;2023-11-21T01:32:36;5.59;77.68
79020;DHT22;72857;44.740;37.770;2023-11-21T01:33:38;5.59;78.00
79020;DHT22;72857;44.740;37.770;2023-11-21T01:34:40;5.59;77.29
79020;DHT22;72857;44.740;37.770;2023-11-21T01:35:42;5.54;76.70
79020;DHT22;72857;44.740;37.770;2023-11-21T01:36:45;5.53;77.33
79020;DHT22;72857;44.740;37.770;2023-11-21T01:37:47;5.54;77.76
79020;DHT22;72857;44.740;37.770;2023-11-21T01:38:49;5.57;77.61
79020;DHT22;72857;44.740;37.770;2023-11-21T01:39:51;5.59;77.52
79020;DHT22;72857;44.740;37.770;2023-11-21T01:40:52;5.59;77.63
79020;DHT22;72857;44.740;37.770;2023-11-21T01:41:54;5.60;77.44
79020;DHT22;72857;44.740;37.770;2023-11-21T01:42:55;5.60;77.05
79020;DHT22;72857;44.740;37.770;2023-11-21T01:43:57;5.63;77.01
79020;DHT22;72857;44.740;37.770;2023-11-21T01:44:59;5.69;77.25
79020;DHT22;72857;44.740;37.770;2023-11-21T01:46:00;5.70;77.74
79020;DHT22;72857;44.740;37.770;2023-11-21T01:47:02;5.74;77.12
79020;DHT22;72857;44.740;37.770;2023-11-21T01:48:06;5.77;76.92
79020;DHT22;72857;44.740;37.770;2023-11-21T01:49:09;5.80;76.52
79020;DHT22;72857;44.740;37.770;2023-11-21T01:50:16;5.81;76.06
79020;DHT22;72857;44.740;37.770;2023-11-21T01:51:18;5.83;76.21
79020;DHT22;72857;44.740;37.770;2023-11-21T01:52:20;5.83;76.16
79020;DHT22;72857;44.740;37.770;2023-11-21T01:53:23;5.81;76.19
79020;DHT22;72857;44.740;37.770;2023-11-21T01:54:25;5.83;76.66
79020;DHT22;72857;44.740;37.770;2023-11-21T01:55:27;5.89;76.61
79020;DHT22;72857;44.740;37.770;2023-11-21T01:56:32;5.90;76.44
79020;DHT22;72857;44.740;37.770;2023-11-21T01:57:34;5.94;76.27
79020;DHT22;72857;44.740;37.770;2023-11-21T01:58:36;5.93;75.90
79020;DHT22;72857;44.740;37.770;2023-11-21T01:59:38;5.94;75.94
79020;DHT22;72857;44.740;37.770;2023-11-21T02:00:40;5.94;75.68
79020;DHT22;72857;44.740;37.770;2023-11-21T02:01:42;5.93;75.90
79020;DHT22;72857;44.740;37.770;2023-11-21T02:02:44;5.93;75.72
79020;DHT22;72857;44.740;37.770;2023-11-21T02:03:45;5.93;75.80
79020;DHT22;72857;44.740;37.770;2023-11-21T02:04:47;5.93;76.01
79020;DHT22;72857;44.740;37.770;2023-11-21T02:05:48;5.87;76.06
79020;DHT22;72857;44.740;37.770;2023-11-21T02:06:49;5.89;76.22
79020;DHT22;72857;44.740;37.770;2023-11-21T02:07:52;5.90;76.41
79020;DHT22;72857;44.740;37.770;2023-11-21T02:08:53;5.89;76.19
79020;DHT22;72857;44.740;37.770;2023-11-21T02:09:54;5.90;76.34
79020;DHT22;72857;44.740;37.770;2023-11-21T02:10:56;5.93;76.28
79020;DHT22;72857;44.740;37.770;2023-11-21T02:11:58;5.95;76.13
79020;DHT22;72857;44.740;37.770;2023-11-21T02:13:00;6.00;76.01
79020;DHT22;72857;44.740;37.770;2023-11-21T02:14:03;6.00;75.71
79020;DHT22;72857;44.740;37.770;2023-11-21T02:15:10;5.97;75.95
79020;DHT22;72857;44.740;37.770;2023-11-21T02:16:17;5.90;75.63
79020;DHT22;72857;44.740;37.770;2023-11-21T02:17:19;5.90;75.95
79020;DHT22;72857;44.740;37.770;2023-11-21T02:18:21;5.90;76.58
79020;DHT22;72857;44.740;37.770;2023-11-21T02:19:23;5.93;76.63
79020;DHT22;72857;44.740;37.770;2023-11-21T02:20:26;5.90;76.46
79020;DHT22;72857;44.740;37.770;2023-11-21T02:21:30;5.94;76.57
79020;DHT22;72857;44.740;37.770;2023-11-21T02:22:37;5.90;76.57
79020;DHT22;72857;44.740;37.770;2023-11-21T02:23:41;5.90;76.72
79020;DHT22;72857;44.740;37.770;2023-11-21T02:24:46;5.93;76.69
79020;DHT22;72857;44.740;37.770;2023-11-21T02:25:48;5.91;76.64
79020;DHT22;72857;44.740;37.770;2023-11-21T02:26:51;5.95;76.66
79020;DHT22;72857;44.740;37.770;2023-11-21T02:27:52;5.93;76.79
79020;DHT22;72857;44.740;37.770;2023-11-21T02:28:55;5.93;76.22
79020;DHT22;72857;44.740;37.770;2023-11-21T02:29:59;5.87;76.82
79020;DHT22;72857;44.740;37.770;2023-11-21T02:31:02;5.89;76.77
79020;DHT22;72857;44.740;37.770;2023-11-21T02:32:05;5.86;76.69
79020;DHT22;72857;44.740;37.770;2023-11-21T02:33:07;5.89;76.84
79020;DHT22;72857;44.740;37.770;2023-11-21T02:34:08;5.87;76.68
79020;DHT22;72857;44.740;37.770;2023-11-21T02:35:09;5.87;77.14
79020;DHT22;72857;44.740;37.770;2023-11-21T02:36:13;5.90;76.49
79020;DHT22;72857;44.740;37.770;2023-11-21T02:37:14;5.84;76.60
79020;DHT22;72857;44.740;37.770;2023-11-21T02:38:17;5.78;76.78
79020;DHT22;72857;44.740;37.770;2023-11-21T02:39:19;5.75;77.31
79020;DHT22;72857;44.740;37.770;2023-11-21T02:40:23;5.73;77.25
79020;DHT22;72857;44.740;37.770;2023-11-21T02:41:26;5.75;77.27
79020;DHT22;72857;44.740;37.770;2023-11-21T02:42:28;5.70;77.45
79020;DHT22;72857;44.740;37.770;2023-11-21T02:43:30;5.69;77.47
79020;DHT22;72857;44.740;37.770;2023-11-21T02:44:31;5.69;77.72
79020;DHT22;72857;44.740;37.770;2023-11-21T02:45:32;5.69;77.75
79020;DHT22;72857;44.740;37.770;2023-11-21T02:46:35;5.73;78.21
79020;DHT22;72857;44.740;37.770;2023-11-21T02:47:36;5.77;78.17
79020;DHT22;72857;44.740;37.770;2023-11-21T02:48:37;5.77;78.09
79020;DHT22;72857;44.740;37.770;2023-11-21T02:49:39;5.78;77.52
79020;DHT22;72857;44.740;37.770;2023-11-21T02:50:40;5.83;77.91
79020;DHT22;72857;44.740;37.770;2023-11-21T02:51:42;5.84;77.54
79020;DHT22;72857;44.740;37.770;2023-11-21T02:52:44;5.84;77.12
79020;DHT22;72857;44.740;37.770;2023-11-21T02:53:45;5.86;77.09
79020;DHT22;72857;44.740;37.770;2023-11-21T02:54:47;5.87;77.60
79020;DHT22;72857;44.740;37.770;2023-11-21T02:55:48;5.94;77.63
79020;DHT22;72857;44.740;37.770;2023-11-21T02:56:50;5.97;77.31
79020;DHT22;72857;44.740;37.770;2023-11-21T02:57:52;5.97;76.92
79020;DHT22;72857;44.740;37.770;2023-11-21T02:58:56;5.95;76.25
79020;DHT22;72857;44.740;37.770;2023-11-21T02:59:59;5.93;76.84
79020;DHT22;72857;44.740;37.770;2023-11-21T03:01:00;5.94;76.76
79020;DHT22;72857;44.740;37.770;2023-11-21T03:02:03;5.95;76.58
79020;DHT22;72857;44.740;37.770;2023-11-21T03:03:04;5.94;76.47
79020;DHT22;72857;44.740;37.770;2023-11-21T03:04:05;5.91;76.76
79020;DHT22;72857;44.740;37.770;2023-11-21T03:05:08;5.95;76.78
79020;DHT22;72857;44.740;37.770;2023-11-21T03:06:10;5.98;76.62
79020;DHT22;72857;44.740;37.770;2023-11-21T03:07:12;5.94;76.06
79020;DHT22;72857;44.740;37.770;2023-11-21T03:08:13;5.95;76.28
79020;DHT22;72857;44.740;37.770;2023-11-21T03:09:14;5.90;76.51
79020;DHT22;72857;44.740;37.770;2023-11-21T03:10:18;5.90;76.80
79020;DHT22;72857;44.740;37.770;2023-11-21T03:11:20;5.90;76.93
79020;DHT22;72857;44.740;37.770;2023-11-21T03:12:21;5.93;76.59
79020;DHT22;72857;44.740;37.770;2023-11-21T03:13:22;5.91;76.93
79020;DHT22;72857;44.740;37.770;2023-11-21T03:14:24;5.93;76.35
79020;DHT22;72857;44.740;37.770;2023-11-21T03:15:25;5.86;76.39
79020;DHT22;72857;44.740;37.770;2023-11-21T03:16:26;5.90;76.51
79020;DHT22;72857;44.740;37.770;2023-11-21T03:17:28;5.84;76.44
79020;DHT22;72857;44.740;37.770;2023-11-21T03:18:30;5.81;76.73
79020;DHT22;72857;44.740;37.770;2023-11-21T03:19:31;5.83;76.90
79020;DHT22;72857;44.740;37.770;2023-11-21T03:20:32;5.81;77.00
79020;DHT22;72857;44.740;37.770;2023-11-21T03:21:33;5.84;77.33
79020;DHT22;72857;44.740;37.770;2023-11-21T03:22:35;5.83;77.04
79020;DHT22;72857;44.740;37.770;2023-11-21T03:23:38;5.83;77.38
79020;DHT22;72857;44.740;37.770;2023-11-21T03:24:39;5.84;77.18
79020;DHT22;72857;44.740;37.770;2023-11-21T03:25:40;5.86;77.41
79020;DHT22;72857;44.740;37.770;2023-11-21T03:26:45;5.90;77.07
79020;DHT22;72857;44.740;37.770;2023-11-21T03:27:46;5.90;77.08
79020;DHT22;72857;44.740;37.770;2023-11-21T03:28:48;5.86;76.93
79020;DHT22;72857;44.740;37.770;2023-11-21T03:29:49;5.89;77.33
79020;DHT22;72857;44.740;37.770;2023-11-21T03:30:51;5.90;77.92
79020;DHT22;72857;44.740;37.770;2023-11-21T03:31:53;5.90;77.43
79020;DHT22;72857;44.740;37.770;2023-11-21T03:32:55;5.94;77.25
79020;DHT22;72857;44.740;37.770;2023-11-21T03:33:57;5.95;77.65
79020;DHT22;72857;44.740;37.770;2023-11-21T03:34:58;6.01;77.05
79020;DHT22;72857;44.740;37.770;2023-11-21T03:35:59;6.00;76.92
79020;DHT22;72857;44.740;37.770;2023-11-21T03:37:01;6.00;77.08
79020;DHT22;72857;44.740;37.770;2023-11-21T03:38:03;5.97;77.05
79020;DHT22;72857;44.740;37.770;2023-11-21T03:39:04;6.00;76.88
79020;DHT22;72857;44.740;37.770;2023-11-21T03:40:07;5.97;76.51
79020;DHT22;72857;44.740;37.770;2023-11-21T03:41:09;5.94;76.81
79020;DHT22;72857;44.740;37.770;2023-11-21T03:42:11;5.91;77.52
79020;DHT22;72857;44.740;37.770;2023-11-21T03:43:13;5.90;77.16
79020;DHT22;72857;44.740;37.770;2023-11-21T03:44:14;5.93;77.38
79020;DHT22;72857;44.740;37.770;2023-11-21T03:45:16;5.95;77.41
79020;DHT22;72857;44.740;37.770;2023-11-21T03:46:17;5.98;77.39
79020;DHT22;72857;44.740;37.770;2023-11-21T03:47:19;6.00;77.62
79020;DHT22;72857;44.740;37.770;2023-11-21T03:48:20;5.95;77.36
79020;DHT22;72857;44.740;37.770;2023-11-21T03:49:22;5.93;77.52
79020;DHT22;72857;44.740;37.770;2023-11-21T03:50:23;5.95;77.78
79020;DHT22;72857;44.740;37.770;2023-11-21T03:51:24;5.95;77.51
79020;DHT22;72857;44.740;37.770;2023-11-21T03:52:26;5.95;77.72
79020;DHT22;72857;44.740;37.770;2023-11-21T03:53:29;5.95;77.59
79020;DHT22;72857;44.740;37.770;2023-11-21T03:54:30;5.98;78.21
79020;DHT22;72857;44.740;37.770;2023-11-21T03:55:32;6.01;77.81
79020;DHT22;72857;44.740;37.770;2023-11-21T03:56:33;6.02;77.76
79020;DHT22;72857;44.740;37.770;2023-11-21T03:57:35;6.02;77.96
79020;DHT22;72857;44.740;37.770;2023-11-21T03:58:36;6.04;77.99
79020;DHT22;72857;44.740;37.770;2023-11-21T03:59:40;6.05;78.14
79020;DHT22;72857;44.740;37.770;2023-11-21T04:00:42;6.04;78.22
79020;DHT22;72857;44.740;37.770;2023-11-21T04:01:43;6.04;77.80
79020;DHT22;72857;44.740;37.770;2023-11-21T04:02:45;6.07;78.12
79020;DHT22;72857;44.740;37.770;2023-11-21T04:03:47;6.05;77.48
79020;DHT22;72857;44.740;37.770;2023-11-21T04:04:48;6.01;77.48
79020;DHT22;72857;44.740;37.770;2023-11-21T04:05:50;6.02;77.74
79020;DHT22;72857;44.740;37.770;2023-11-21T04:06:51;6.01;77.89
79020;DHT22;72857;44.740;37.770;2023-11-21T04:07:55;6.05;77.85
79020;DHT22;72857;44.740;37.770;2023-11-21T04:08:56;6.05;77.48
79020;DHT22;72857;44.740;37.770;2023-11-21T04:09:57;6.07;77.97
79020;DHT22;72857;44.740;37.770;2023-11-21T04:10:59;6.07;78.30
79020;DHT22;72857;44.740;37.770;2023-11-21T04:12:00;6.11;77.80
79020;DHT22;72857;44.740;37.770;2023-11-21T04:13:01;6.20;78.23
79020;DHT22;72857;44.740;37.770;2023-11-21T04:14:03;6.20;77.17
79020;DHT22;72857;44.740;37.770;2023-11-21T04:15:04;6.20;77.00
79020;DHT22;72857;44.740;37.770;2023-11-21T04:16:07;6.18;77.41
79020;DHT22;72857;44.740;37.770;2023-11-21T04:17:08;6.18;77.01
79020;DHT22;72857;44.740;37.770;2023-11-21T04:18:10;6.21;77.19
79020;DHT22;72857;44.740;37.770;2023-11-21T04:19:11;6.20;76.93
79020;DHT22;72857;44.740;37.770;2023-11-21T04:20:15;6.18;76.93
79020;DHT22;72857;44.740;37.770;2023-11-21T04:21:16;6.15;77.30
79020;DHT22;72857;44.740;37.770;2023-11-21T04:22:18;6.14;76.76
79020;DHT22;72857;44.740;37.770;2023-11-21T04:23:19;6.14;76.46
79020;DHT22;72857;44.740;37.770;2023-11-21T04:24:20;6.17;76.59
79020;DHT22;72857;44.740;37.770;2023-11-21T04:25:22;6.12;76.38
79020;DHT22;72857;44.740;37.770;2023-11-21T04:26:24;6.11;77.01
79020;DHT22;72857;44.740;37.770;2023-11-21T04:27:25;6.15;76.92
79020;DHT22;72857;44.740;37.770;2023-11-21T04:28:47;6.15;76.35
79020;DHT22;72857;44.740;37.770;2023-11-21T04:29:48;6.20;76.60
79020;DHT22;72857;44.740;37.770;2023-11-21T04:30:49;6.22;76.56
79020;DHT22;72857;44.740;37.770;2023-11-21T04:31:51;6.20;76.14
79020;DHT22;72857;44.740;37.770;2023-11-21T04:32:52;6.21;75.74
79020;DHT22;72857;44.740;37.770;2023-11-21T04:33:53;6.20;75.97
79020;DHT22;72857;44.740;37.770;2023-11-21T04:34:55;6.21;75.73
79020;DHT22;72857;44.740;37.770;2023-11-21T04:35:56;6.18;76.24
79020;DHT22;72857;44.740;37.770;2023-11-21T04:36:57;6.21;76.17
79020;DHT22;72857;44.740;37.770;2023-11-21T04:37:59;6.20;75.97
79020;DHT22;72857;44.740;37.770;2023-11-21T04:39:00;6.15;76.02
79020;DHT22;72857;44.740;37.770;2023-11-21T04:40:02;6.14;76.28
79020;DHT22;72857;44.740;37.770;2023-11-21T04:41:08;6.15;76.67
79020;DHT22;72857;44.740;37.770;2023-11-21T04:42:09;6.18;76.14
79020;DHT22;72857;44.740;37.770;2023-11-21T04:43:10;6.21;75.86
79020;DHT22;72857;44.740;37.770;2023-11-21T04:44:11;6.17;76.20
79020;DHT22;72857;44.740;37.770;2023-11-21T04:45:13;6.14;75.62
79020;DHT22;72857;44.740;37.770;2023-11-21T04:46:14;6.11;76.06
79020;DHT22;72857;44.740;37.770;2023-11-21T04:47:16;6.11;75.76
79020;DHT22;72857;44.740;37.770;2023-11-21T04:48:17;6.05;75.92
79020;DHT22;72857;44.740;37.770;2023-11-21T04:49:18;6.05;75.72
79020;DHT22;72857;44.740;37.770;2023-11-21T04:50:20;6.07;75.82
79020;DHT22;72857;44.740;37.770;2023-11-21T04:51:21;6.11;76.26
79020;DHT22;72857;44.740;37.770;2023-11-21T04:52:22;6.12;76.54
79020;DHT22;72857;44.740;37.770;2023-11-21T04:53:24;6.21;76.68
79020;DHT22;72857;44.740;37.770;2023-11-21T04:54:25;6.24;76.57
79020;DHT22;72857;44.740;37.770;2023-11-21T04:55:27;6.24;75.82
79020;DHT22;72857;44.740;37.770;2023-11-21T04:56:29;6.26;75.80
79020;DHT22;72857;44.740;37.770;2023-11-21T04:57:30;6.25;75.70
79020;DHT22;72857;44.740;37.770;2023-11-21T04:58:31;6.24;75.52
79020;DHT22;72857;44.740;37.770;2023-11-21T04:59:34;6.21;75.32
79020;DHT22;72857;44.740;37.770;2023-11-21T05:00:36;6.18;75.37
79020;DHT22;72857;44.740;37.770;2023-11-21T05:01:37;6.15;75.34
79020;DHT22;72857;44.740;37.770;2023-11-21T05:02:40;6.14;75.70
79020;DHT22;72857;44.740;37.770;2023-11-21T05:03:42;6.10;76.06
79020;DHT22;72857;44.740;37.770;2023-11-21T05:04:44;6.14;76.36
79020;DHT22;72857;44.740;37.770;2023-11-21T05:05:45;6.15;75.95
79020;DHT22;72857;44.740;37.770;2023-11-21T05:06:46;6.18;76.19
79020;DHT22;72857;44.740;37.770;2023-11-21T05:07:48;6.20;75.60
79020;DHT22;72857;44.740;37.770;2023-11-21T05:08:50;6.17;75.44
79020;DHT22;72857;44.740;37.770;2023-11-21T05:09:51;6.15;75.75
79020;DHT22;72857;44.740;37.770;2023-11-21T05:10:52;6.15;76.35
79020;DHT22;72857;44.740;37.770;2023-11-21T05:11:54;6.20;76.15
79020;DHT22;72857;44.740;37.770;2023-11-21T05:12:55;6.15;75.88
79020;DHT22;72857;44.740;37.770;2023-11-21T05:13:57;6.21;76.53
79020;DHT22;72857;44.740;37.770;2023-11-21T05:14:59;6.21;75.88
79020;DHT22;72857;44.740;37.770;2023-11-21T05:16:00;6.25;75.95
79020;DHT22;72857;44.740;37.770;2023-11-21T05:17:05;6.24;75.53
79020;DHT22;72857;44.740;37.770;2023-11-21T05:18:06;6.22;75.54
79020;DHT22;72857;44.740;37.770;2023-11-21T05:19:07;6.25;76.03
79020;DHT22;72857;44.740;37.770;2023-11-21T05:20:11;6.28;75.63
79020;DHT22;72857;44.740;37.770;2023-11-21T05:21:13;6.26;75.79
79020;DHT22;72857;44.740;37.770;2023-11-21T05:22:14;6.31;75.86
79020;DHT22;72857;44.740;37.770;2023-11-21T05:23:16;6.33;75.60
79020;DHT22;72857;44.740;37.770;2023-11-21T05:24:17;6.29;75.78
79020;DHT22;72857;44.740;37.770;2023-11-21T05:25:18;6.24;76.14
79020;DHT22;72857;44.740;37.770;2023-11-21T05:26:20;6.21;76.18
79020;DHT22;72857;44.740;37.770;2023-11-21T05:27:21;6.24;75.98
79020;DHT22;72857;44.740;37.770;2023-11-21T05:28:22;6.21;76.19
79020;DHT22;72857;44.740;37.770;2023-11-21T05:29:24;6.25;75.81
79020;DHT22;72857;44.740;37.770;2023-11-21T05:30:26;6.18;76.55
79020;DHT22;72857;44.740;37.770;2023-11-21T05:31:27;6.15;76.11
79020;DHT22;72857;44.740;37.770;2023-11-21T05:32:29;6.17;76.62
79020;DHT22;72857;44.740;37.770;2023-11-21T05:33:30;6.20;76.58
79020;DHT22;72857;44.740;37.770;2023-11-21T05:34:34;6.25;76.21
79020;DHT22;72857;44.740;37.770;2023-11-21T05:35:35;6.21;76.03
79020;DHT22;72857;44.740;37.770;2023-11-21T05:36:37;6.20;76.25
79020;DHT22;72857;44.740;37.770;2023-11-21T05:37:38;6.15;76.44
79020;DHT22;72857;44.740;37.770;2023-11-21T05:38:42;6.20;76.71
79020;DHT22;72857;44.740;37.770;2023-11-21T05:39:44;6.17;76.01
79020;DHT22;72857;44.740;37.770;2023-11-21T05:40:45;6.17;76.21
79020;DHT22;72857;44.740;37.770;2023-11-21T05:41:46;6.18;76.74
79020;DHT22;72857;44.740;37.770;2023-11-21T05:42:49;6.22;76.11
79020;DHT22;72857;44.740;37.770;2023-11-21T05:43:52;6.25;76.58
79020;DHT22;72857;44.740;37.770;2023-11-21T05:44:55;6.21;76.23
79020;DHT22;72857;44.740;37.770;2023-11-21T05:45:56;6.24;76.02
79020;DHT22;72857;44.740;37.770;2023-11-21T05:46:58;6.21;76.56
79020;DHT22;72857;44.740;37.770;2023-11-21T05:48:00;6.20;76.22
79020;DHT22;72857;44.740;37.770;2023-11-21T05:49:01;6.20;76.63
79020;DHT22;72857;44.740;37.770;2023-11-21T05:50:04;6.20;76.22
79020;DHT22;72857;44.740;37.770;2023-11-21T05:51:07;6.21;76.30
79020;DHT22;72857;44.740;37.770;2023-11-21T05:52:09;6.18;75.96
79020;DHT22;72857;44.740;37.770;2023-11-21T05:53:11;6.21;76.30
79020;DHT22;72857;44.740;37.770;2023-11-21T05:54:13;6.20;76.18
79020;DHT22;72857;44.740;37.770;2023-11-21T05:55:15;6.17;76.42
79020;DHT22;72857;44.740;37.770;2023-11-21T05:56:19;6.20;76.28
79020;DHT22;72857;44.740;37.770;2023-11-21T05:57:20;6.21;76.01
79020;DHT22;72857;44.740;37.770;2023-11-21T05:58:22;6.18;76.17
79020;DHT22;72857;44.740;37.770;2023-11-21T05:59:24;6.21;76.32
79020;DHT22;72857;44.740;37.770;2023-11-21T06:00:26;6.28;76.48
79020;DHT22;72857;44.740;37.770;2023-11-21T06:01:28;6.31;76.79
79020;DHT22;72857;44.740;37.770;2023-11-21T06:02:30;6.31;76.47
79020;DHT22;72857;44.740;37.770;2023-11-21T06:03:32;6.31;76.33
79020;DHT22;72857;44.740;37.770;2023-11-21T06:04:33;6.28;75.98
79020;DHT22;72857;44.740;37.770;2023-11-21T06:05:35;6.28;76.22
79020;DHT22;72857;44.740;37.770;2023-11-21T06:06:36;6.33;76.43
79020;DHT22;72857;44.740;37.770;2023-11-21T06:07:38;6.36;76.19
79020;DHT22;72857;44.740;37.770;2023-11-21T06:08:41;6.32;76.06
79020;DHT22;72857;44.740;37.770;2023-11-21T06:09:44;6.33;76.18
79020;DHT22;72857;44.740;37.770;2023-11-21T06:10:46;6.35;75.38
79020;DHT22;72857;44.740;37.770;2023-11-21T06:11:50;6.32;75.84
79020;DHT22;72857;44.740;37.770;2023-11-21T06:12:52;6.35;76.02
79020;DHT22;72857;44.740;37.770;2023-11-21T06:13:54;6.33;75.78
79020;DHT22;72857;44.740;37.770;2023-11-21T06:14:55;6.33;75.95
79020;DHT22;72857;44.740;37.770;2023-11-21T06:15:57;6.28;76.04
79020;DHT22;72857;44.740;37.770;2023-11-21T06:16:58;6.26;76.27
79020;DHT22;72857;44.740;37.770;2023-11-21T06:18:00;6.33;76.19
79020;DHT22;72857;44.740;37.770;2023-11-21T06:19:01;6.29;75.74
79020;DHT22;72857;44.740;37.770;2023-11-21T06:20:04;6.28;76.36
79020;DHT22;72857;44.740;37.770;2023-11-21T06:21:10;6.26;75.58
79020;DHT22;72857;44.740;37.770;2023-11-21T06:22:12;6.25;76.09
79020;DHT22;72857;44.740;37.770;2023-11-21T06:23:13;6.29;76.53
79020;DHT22;72857;44.740;37.770;2023-11-21T06:24:15;6.32;76.24
79020;DHT22;72857;44.740;37.770;2023-11-21T06:25:17;6.32;75.73
79020;DHT22;72857;44.740;37.770;2023-11-21T06:26:18;6.33;75.51
79020;DHT22;72857;44.740;37.770;2023-11-21T06:27:20;6.29;75.63
79020;DHT22;72857;44.740;37.770;2023-11-21T06:28:22;6.29;75.77
79020;DHT22;72857;44.740;37.770;2023-11-21T06:29:23;6.31;75.36
79020;DHT22;72857;44.740;37.770;2023-11-21T06:30:25;6.31;76.12
79020;DHT22;72857;44.740;37.770;2023-11-21T06:31:26;6.35;75.94